Time;durP1;ratioP1;P1;durP2;ratioP2;P2;SDS_P1;SDS_P2;PMS_P1;PMS_P2;Temp;Humidity;BMP_temperature;BMP_pressure;BME280_temperature;BME280_humidity;BME280_pressure;Samples;Min_cycle;Max_cycle;Signal;HPM_P1;HPM_P2
2024/04/09 10:18:52;;;;;;;4.05;1.52;;;;;;;32.57;23.43;99915.70;1867919;76;27244;-67
2024/04/09 10:21:30;;;;;;;1.55;1.45;;;;;;;32.08;24.56;99911.11;1824663;78;25340;-68
2024/04/09 10:24:04;;;;;;;10.80;9.93;;;;;;;32.00;24.81;99911.41;1824515;78;28142;-67
2024/04/09 10:26:32;;;;;;;58.78;55.58;;;;;;;31.84;24.44;99901.91;1804274;78;25708;-69
2024/04/09 10:29:05;;;;;;;;;;;;;;;31.86;25.12;99898.66;1827274;77;25376;-68
2024/04/09 10:34:24;;;;;;;4.08;2.37;;;;;;;32.20;25.49;99898.37;1905554;74;25736;-67
2024/04/09 10:36:56;;;;;;;3.70;1.50;;;;;;;32.08;25.17;99888.73;1789839;80;25578;-68
2024/04/09 10:39:24;;;;;;;60.38;57.17;;;;;;;32.07;24.54;99892.80;1804464;79;27509;-68
2024/04/09 10:41:58;;;;;;;;;;;;;;;31.88;24.71;99891.37;1792577;79;25543;-69
2024/04/09 10:44:28;;;;;;;59.33;56.23;;;;;;;32.02;25.30;99892.13;1810848;78;25516;-69
2024/04/09 10:46:57;;;;;;;40.30;37.75;;;;;;;31.99;24.72;99881.11;1810651;79;25419;-69
2024/04/09 10:49:27;;;;;;;59.13;55.83;;;;;;;31.78;23.92;99890.58;1759295;80;25630;-69
2024/04/09 10:51:58;;;;;;;59.75;56.15;;;;;;;31.50;24.63;99884.20;1810584;79;27544;-68
2024/04/09 10:54:28;;;;;;;58.87;55.78;;;;;;;31.38;25.23;99876.09;1810606;79;25523;-67
2024/04/09 10:57:05;;;;;;;62.90;59.35;;;;;;;31.52;25.28;99887.31;1810632;79;25384;-70
2024/04/09 10:59:31;;;;;;;59.13;56.10;;;;;;;31.28;24.77;99875.28;1810929;79;27293;-68
2024/04/09 11:02:00;;;;;;;60.33;57.23;;;;;;;31.22;25.62;99870.77;1810777;78;25535;-69
2024/04/09 11:04:26;;;;;;;60.83;57.67;;;;;;;31.28;25.86;99871.09;1810857;79;27454;-68
2024/04/09 11:06:54;;;;;;;57.00;54.05;;;;;;;31.34;25.54;99867.69;1789855;80;25915;-68
2024/04/09 11:09:22;;;;;;;59.27;56.13;;;;;;;31.25;25.97;99861.47;1810723;79;25545;-67
2024/04/09 11:11:52;;;;;;;60.48;57.27;;;;;;;31.44;25.27;99863.04;1810645;78;25392;-68
2024/04/09 11:16:21;;;;;;;56.37;53.48;;;;;;;31.79;25.64;99856.41;1905799;74;26049;-68
2024/04/09 11:27:10;;;;;;;20.55;19.00;;;;;;;31.92;25.50;99852.83;1905650;74;26088;-67
2024/04/09 11:29:43;;;;;;;3.92;1.72;;;;;;;31.68;25.44;99837.31;1860042;77;25326;-67
2024/04/09 11:32:14;;;;;;;2.17;1.72;;;;;;;31.74;26.08;99856.42;1859247;76;27958;-63
2024/04/09 11:34:41;;;;;;;4.15;1.82;;;;;;;31.76;26.12;99847.58;1859905;76;25441;-66
2024/04/09 11:37:09;;;;;;;5.10;1.92;;;;;;;31.82;26.82;99834.52;1860008;76;25451;-66
2024/04/09 11:39:38;;;;;;;4.10;1.90;;;;;;;32.10;26.60;99847.87;1860188;77;25372;-66
2024/04/09 11:42:06;;;;;;;3.77;1.90;;;;;;;31.84;25.65;99832.81;1860201;76;25573;-67
2024/04/09 11:44:33;;;;;;;3.00;1.75;;;;;;;31.74;26.51;99834.06;1860136;77;27978;-64
2024/04/09 11:47:00;;;;;;;4.28;2.00;;;;;;;32.00;26.96;99833.09;1859902;76;25470;-65
2024/04/09 11:49:27;;;;;;;3.00;2.30;;;;;;;32.10;25.52;99822.70;1859934;77;25448;-66
2024/04/09 11:51:55;;;;;;;3.67;2.00;;;;;;;32.04;26.18;99821.74;1859958;77;25802;-66
2024/04/09 11:54:22;;;;;;;4.40;2.00;;;;;;;32.22;26.29;99820.20;1860000;76;25349;-64
2024/04/09 11:56:51;;;;;;;3.45;1.60;;;;;;;32.61;26.18;99805.78;1859914;76;27864;-65
2024/04/09 11:59:18;;;;;;;2.05;1.82;;;;;;;32.65;25.31;99811.98;1859816;77;25526;-65
2024/04/09 12:01:46;;;;;;;1.90;1.70;;;;;;;32.57;26.04;99819.13;1859916;76;25502;-65
2024/04/09 12:04:14;;;;;;;6.47;2.60;;;;;;;32.59;26.05;99802.66;1860104;77;25847;-65
2024/04/09 12:06:42;;;;;;;3.50;2.00;;;;;;;32.71;25.85;99812.89;1860147;76;25503;-65
2024/04/09 12:09:09;;;;;;;4.53;2.00;;;;;;;32.76;25.36;99808.05;1860043;76;27434;-65
2024/04/09 12:11:38;;;;;;;5.43;2.20;;;;;;;32.51;25.24;99804.25;1860068;77;25522;-65
2024/04/09 12:14:05;;;;;;;3.52;2.20;;;;;;;32.40;26.06;99789.34;1859881;77;25357;-66
2024/04/09 12:16:34;;;;;;;4.58;2.17;;;;;;;32.56;25.64;99791.01;1860085;77;27381;-65
2024/04/09 12:19:01;;;;;;;3.10;2.15;;;;;;;32.48;25.75;99794.76;1860027;77;25328;-64
2024/04/09 12:21:29;;;;;;;5.40;2.40;;;;;;;32.50;25.82;99783.09;1859860;77;27409;-64
2024/04/09 12:23:56;;;;;;;3.40;2.30;;;;;;;32.42;25.74;99783.28;1859918;77;25687;-62
2024/04/09 12:26:24;;;;;;;2.95;2.10;;;;;;;32.32;25.36;99795.16;1863153;76;25338;-62
2024/04/09 12:28:57;;;;;;;2.98;2.05;;;;;;;32.20;25.39;99791.30;1866184;76;25742;-66
2024/04/09 12:31:20;;;;;;;2.80;2.30;;;;;;;32.19;26.14;99775.12;1865644;76;25514;-66
2024/04/09 12:33:48;;;;;;;5.12;2.22;;;;;;;32.42;26.26;99779.87;1866214;76;27905;-66
2024/04/09 12:36:15;;;;;;;3.15;2.10;;;;;;;32.52;25.36;99767.39;1866201;76;25322;-66
2024/04/09 12:38:43;;;;;;;5.12;2.45;;;;;;;32.43;25.67;99770.84;1865530;76;25424;-68
2024/04/09 12:41:12;;;;;;;4.75;2.27;;;;;;;32.41;24.98;99767.75;1865679;76;32803;-67
2024/04/09 12:43:39;;;;;;;4.62;2.17;;;;;;;32.23;25.67;99772.78;1865733;76;25104;-67
2024/04/09 12:46:06;;;;;;;5.87;2.17;;;;;;;32.25;25.42;99771.68;1865620;76;29672;-68
2024/04/09 12:48:34;;;;;;;2.30;1.90;;;;;;;32.27;26.02;99769.98;1865610;76;25502;-67
2024/04/09 12:51:02;;;;;;;6.15;1.70;;;;;;;32.29;25.22;99766.08;1865548;76;25457;-68
2024/04/09 12:53:29;;;;;;;2.57;1.87;;;;;;;32.29;25.61;99760.48;1865809;76;25487;-67
2024/04/09 12:55:56;;;;;;;3.50;1.95;;;;;;;32.39;24.89;99772.42;1865590;76;25324;-65
2024/04/09 12:58:24;;;;;;;5.65;2.25;;;;;;;32.04;24.80;99767.20;1865569;76;27272;-65
2024/04/09 13:00:53;;;;;;;4.25;1.90;;;;;;;31.67;25.14;99756.72;1865662;76;25513;-65
2024/04/09 13:03:22;;;;;;;4.25;1.95;;;;;;;31.39;25.35;99779.07;1865601;76;25280;-65
2024/04/09 13:05:50;;;;;;;2.98;1.95;;;;;;;31.07;25.42;99758.86;1865581;76;25517;-66
2024/04/09 13:08:19;;;;;;;3.40;2.00;;;;;;;30.88;25.96;99756.00;1865733;76;25082;-66
2024/04/09 13:10:46;;;;;;;3.83;2.37;;;;;;;30.91;26.39;99759.91;1865729;76;27467;-66
2024/04/09 13:13:14;;;;;;;5.20;2.75;;;;;;;30.89;26.11;99758.97;1865227;76;25590;-65
2024/04/09 13:15:43;;;;;;;4.17;2.05;;;;;;;30.82;25.96;99773.22;1864307;76;25773;-65
2024/04/09 13:18:10;;;;;;;4.08;2.67;;;;;;;30.53;26.22;99763.21;1865108;76;25639;-66
2024/04/09 13:20:37;;;;;;;4.75;2.35;;;;;;;30.39;26.72;99762.98;1865765;76;25493;-66
2024/04/09 13:23:04;;;;;;;3.05;1.80;;;;;;;30.39;26.72;99762.98;1865686;76;27333;-66
2024/04/09 13:25:32;;;;;;;3.75;1.67;;;;;;;30.34;26.43;99755.36;1865240;76;25500;-66
2024/04/09 13:27:59;;;;;;;2.85;1.77;;;;;;;30.20;26.40;99756.52;1859304;77;25338;-63
2024/04/09 13:30:27;;;;;;;5.03;2.52;;;;;;;30.09;26.88;99735.41;1859256;76;25344;-63
2024/04/09 13:32:55;;;;;;;4.78;1.87;;;;;;;29.99;26.62;99749.14;1859491;76;25303;-66
2024/04/09 13:35:22;;;;;;;15.60;13.80;;;;;;;29.93;26.99;99753.73;1859349;76;27355;-65
2024/04/09 13:37:50;;;;;;;4.60;3.40;;;;;;;29.79;26.96;99747.45;1859213;77;25463;-65
2024/04/09 13:40:17;;;;;;;5.53;2.30;;;;;;;29.68;27.01;99745.67;1859582;77;25346;-64
2024/04/09 13:42:46;;;;;;;4.92;1.90;;;;;;;29.69;27.56;99737.45;1859272;76;25198;-65
2024/04/09 13:45:13;;;;;;;3.10;1.92;;;;;;;29.66;26.92;99738.98;1859466;76;25444;-64
2024/04/09 13:47:40;;;;;;;2.35;2.10;;;;;;;29.55;27.04;99747.11;1859555;77;27354;-65
2024/04/09 13:50:09;;;;;;;2.72;2.00;;;;;;;29.52;27.05;99759.16;1859504;76;26113;-64
2024/04/09 13:52:37;;;;;;;3.77;1.87;;;;;;;29.34;27.66;99745.11;1859859;77;25434;-65
2024/04/09 13:55:08;;;;;;;1.90;1.65;;;;;;;29.34;27.66;99745.11;1859529;76;26135;-64
2024/04/09 13:57:36;;;;;;;3.40;1.90;;;;;;;29.30;27.56;99738.87;1859581;77;25261;-65
2024/04/09 14:00:11;;;;;;;6.75;1.65;;;;;;;29.20;27.49;99744.38;1859277;76;27736;-66
2024/04/09 14:02:38;;;;;;;6.15;2.55;;;;;;;29.14;27.94;99737.01;1859254;77;25319;-64
2024/04/09 14:05:07;;;;;;;4.12;1.80;;;;;;;29.16;27.86;99734.55;1859182;76;25349;-64
2024/04/09 14:07:34;;;;;;;4.58;1.95;;;;;;;29.15;28.14;99732.98;1859354;77;32395;-65
2024/04/09 14:10:03;;;;;;;3.08;1.95;;;;;;;29.30;28.36;99731.28;1859418;77;25504;-64
2024/04/09 14:12:31;;;;;;;5.17;2.05;;;;;;;29.40;28.47;99731.52;1859344;77;27177;-64
2024/04/09 14:14:59;;;;;;;4.92;2.83;;;;;;;29.53;28.00;99729.31;1859127;76;25861;-66
2024/04/09 14:17:34;;;;;;;4.25;2.15;;;;;;;29.53;27.46;99732.86;1859291;76;25498;-68
2024/04/09 14:19:55;;;;;;;;;;;;;;;29.38;27.57;99731.20;1860793;76;27350;-70
2024/04/09 14:22:22;;;;;;;7.55;2.00;;;;;;;29.29;27.14;99726.95;1859330;77;25456;-65
2024/04/09 14:24:50;;;;;;;3.60;1.98;;;;;;;29.22;28.13;99719.63;1859187;77;27331;-66
2024/04/09 14:27:18;;;;;;;;;;;;;;;29.27;27.60;99721.66;1865939;76;25372;-66
2024/04/09 14:29:46;;;;;;;7.40;2.00;;;;;;;29.11;27.56;99730.32;1866072;76;25447;-65
2024/04/09 14:32:14;;;;;;;4.33;1.90;;;;;;;28.90;27.84;99717.92;1865856;76;25479;-66
2024/04/09 14:34:41;;;;;;;3.47;1.80;;;;;;;28.79;27.86;99716.09;1865583;76;25422;-66
2024/04/09 14:37:08;;;;;;;4.37;1.60;;;;;;;28.74;28.16;99712.48;1865639;76;27294;-66
2024/04/09 14:39:35;;;;;;;2.92;1.95;;;;;;;28.73;28.31;99714.50;1866043;76;25349;-65
2024/04/09 14:42:04;;;;;;;2.17;1.75;;;;;;;28.75;28.45;99717.61;1866632;76;25306;-67
2024/04/09 14:44:32;;;;;;;3.58;2.00;;;;;;;28.82;28.85;99713.19;1866265;76;25419;-66
2024/04/09 14:46:59;;;;;;;3.05;1.87;;;;;;;28.85;28.51;99717.09;1865473;76;25345;-65
2024/04/09 14:49:26;;;;;;;4.33;2.72;;;;;;;28.80;28.38;99717.04;1865586;76;27895;-66
2024/04/09 14:51:54;;;;;;;7.00;3.77;;;;;;;28.78;28.64;99712.55;1865752;76;25055;-65
2024/04/09 14:54:24;;;;;;;3.40;1.90;;;;;;;28.86;28.28;99715.85;1865711;76;25331;-65
2024/04/09 14:56:51;;;;;;;4.58;1.98;;;;;;;28.82;28.05;99709.64;1865712;76;25342;-67
2024/04/09 14:59:19;;;;;;;4.42;2.00;;;;;;;28.81;28.38;99711.65;1865631;76;25287;-66
2024/04/09 15:01:47;;;;;;;3.67;2.47;;;;;;;28.79;28.52;99704.37;1865840;76;27406;-67
2024/04/09 15:04:14;;;;;;;4.70;2.05;;;;;;;28.83;28.63;99707.03;1865362;76;25455;-69
2024/04/09 15:06:41;;;;;;;2.95;1.92;;;;;;;28.89;28.64;99703.83;1865494;76;25327;-65
2024/04/09 15:09:10;;;;;;;4.33;2.05;;;;;;;28.88;27.80;99700.90;1865444;76;25503;-64
2024/04/09 15:11:38;;;;;;;2.83;1.77;;;;;;;28.82;27.43;99709.64;1865536;76;25425;-62
2024/04/09 15:14:07;;;;;;;4.62;1.85;;;;;;;28.74;27.48;99710.50;1865588;76;27407;-63
2024/04/09 15:16:35;;;;;;;2.33;1.90;;;;;;;28.70;27.89;99698.70;1865393;76;25551;-63
2024/04/09 15:19:03;;;;;;;4.42;1.72;;;;;;;28.73;28.13;99697.80;1865501;76;25535;-62
2024/04/09 15:21:30;;;;;;;4.42;1.60;;;;;;;28.74;27.84;99706.33;1865435;76;25502;-63
2024/04/09 15:23:57;;;;;;;5.87;2.00;;;;;;;28.69;28.35;99694.38;1865479;76;25278;-63
2024/04/09 15:26:27;;;;;;;4.20;2.10;;;;;;;28.73;28.02;99701.21;1864417;76;27342;-63
2024/04/09 15:28:54;;;;;;;2.15;1.80;;;;;;;28.70;28.29;99693.13;1859130;77;25321;-64
2024/04/09 15:31:24;;;;;;;7.65;5.72;;;;;;;28.69;28.07;99691.59;1859364;77;25533;-64
2024/04/09 15:33:54;;;;;;;2.92;1.80;;;;;;;28.63;27.44;99689.97;1858808;76;25434;-65
2024/04/09 15:36:21;;;;;;;2.98;2.22;;;;;;;28.54;27.73;99704.36;1859135;76;25301;-65
2024/04/09 15:38:50;;;;;;;3.30;2.00;;;;;;;28.44;27.78;99704.27;1859099;77;27936;-66
2024/04/09 15:41:17;;;;;;;2.90;2.10;;;;;;;28.34;28.05;99699.05;1859287;77;25774;-66
2024/04/09 15:43:44;;;;;;;5.53;1.82;;;;;;;28.27;28.09;99700.83;1859119;77;25495;-68
2024/04/09 15:46:13;;;;;;;2.65;1.80;;;;;;;28.19;28.14;99697.32;1859061;76;25500;-68
2024/04/09 15:48:41;;;;;;;;;;;;;;;28.09;28.12;99699.20;1861884;77;25497;-66
2024/04/09 15:51:09;;;;;;;5.05;2.08;;;;;;;28.02;28.07;99698.03;1859132;77;27804;-67
2024/04/09 15:53:37;;;;;;;4.97;1.85;;;;;;;27.93;28.53;99693.91;1859024;77;25345;-66
2024/04/09 15:56:07;;;;;;;3.98;2.02;;;;;;;27.91;28.68;99696.33;1859175;76;25476;-66
2024/04/09 15:58:34;;;;;;;5.87;2.15;;;;;;;27.84;28.40;99696.55;1859116;76;25510;-68
2024/04/09 16:01:01;;;;;;;2.95;1.80;;;;;;;27.77;28.20;99692.59;1859118;77;25452;-66
2024/04/09 16:03:29;;;;;;;3.30;2.62;;;;;;;27.69;28.03;99696.80;1859106;76;27905;-66
2024/04/09 16:05:58;;;;;;;3.02;2.02;;;;;;;27.62;28.34;99696.39;1858971;77;25561;-65
2024/04/09 16:08:29;;;;;;;3.62;1.80;;;;;;;27.55;28.43;99704.31;1859240;77;25281;-64
2024/04/09 16:10:55;;;;;;;;;;;;;;;27.46;28.24;99697.20;1861626;76;25341;-63
2024/04/09 16:13:23;;;;;;;6.85;1.98;;;;;;;27.38;28.29;99704.20;1859276;76;25487;-63
2024/04/09 16:15:50;;;;;;;3.42;1.80;;;;;;;27.27;28.13;99700.90;1859275;76;27655;-64
2024/04/09 16:18:17;;;;;;;5.35;2.10;;;;;;;27.17;28.36;99701.34;1859195;77;25475;-63
2024/04/09 16:20:44;;;;;;;2.75;1.90;;;;;;;27.10;28.49;99703.70;1859287;77;25452;-63
2024/04/09 16:23:11;;;;;;;2.10;1.62;;;;;;;27.03;28.80;99700.50;1859198;77;26068;-63
2024/04/09 16:25:39;;;;;;;5.72;2.10;;;;;;;26.95;29.03;99708.06;1859229;76;25455;-63
2024/04/09 16:28:08;;;;;;;2.30;2.10;;;;;;;26.87;29.32;99706.68;1859166;76;27365;-65
2024/04/09 16:30:37;;;;;;;3.83;1.80;;;;;;;26.78;29.47;99702.55;1859017;76;25679;-62
2024/04/09 16:33:06;;;;;;;3.50;2.42;;;;;;;26.72;29.98;99700.73;1858578;77;25383;-63
2024/04/09 16:35:34;;;;;;;3.90;2.45;;;;;;;26.62;30.34;99696.97;1859387;77;25482;-64
2024/04/09 16:38:03;;;;;;;4.20;2.60;;;;;;;26.51;30.83;99700.01;1859239;76;25500;-63
2024/04/09 16:40:30;;;;;;;3.37;2.67;;;;;;;26.39;31.23;99701.47;1859242;76;27362;-63
2024/04/09 16:42:58;;;;;;;3.98;2.60;;;;;;;26.29;31.47;99703.89;1859139;76;26067;-63
2024/04/09 16:45:25;;;;;;;5.60;2.47;;;;;;;26.20;31.59;99709.99;1859325;76;25392;-63
2024/04/09 16:47:53;;;;;;;5.20;2.37;;;;;;;26.11;32.11;99711.81;1859462;76;25509;-62
2024/04/09 16:50:21;;;;;;;4.25;2.50;;;;;;;26.00;32.20;99710.64;1859422;77;25515;-65
2024/04/09 16:52:49;;;;;;;7.30;2.87;;;;;;;25.89;32.53;99716.39;1859525;76;33082;-64
2024/04/09 16:55:17;;;;;;;8.55;2.70;;;;;;;25.78;33.07;99717.20;1859169;76;25697;-64
2024/04/09 16:57:45;;;;;;;5.45;2.80;;;;;;;25.67;33.25;99712.66;1859247;76;25442;-64
2024/04/09 17:00:14;;;;;;;;;;;;;;;25.57;33.47;99710.12;1861967;76;26453;-65
2024/04/09 17:02:42;;;;;;;6.87;2.67;;;;;;;25.47;33.77;99711.30;1859237;77;25408;-64
2024/04/09 17:05:10;;;;;;;4.62;3.00;;;;;;;25.37;33.75;99708.72;1859225;77;27305;-64
2024/04/09 17:07:38;;;;;;;;;;;;;;;25.28;33.82;99713.43;1861886;77;25494;-63
2024/04/09 17:10:10;;;;;;;6.90;3.43;;;;;;;25.15;34.37;99710.48;1859542;77;25396;-64
2024/04/09 17:12:43;;;;;;;7.55;3.20;;;;;;;25.03;34.60;99715.22;1859186;77;25830;-63
2024/04/09 17:15:11;;;;;;;4.58;3.75;;;;;;;24.93;34.61;99716.38;1859307;76;25501;-63
2024/04/09 17:17:39;;;;;;;;;;;;;;;24.83;34.79;99717.95;1861972;76;27359;-64
2024/04/09 17:20:10;;;;;;;5.33;3.15;;;;;;;24.70;35.24;99720.52;1859146;77;26173;-64
2024/04/09 17:22:38;;;;;;;6.87;3.45;;;;;;;24.57;35.35;99723.88;1859328;76;25451;-75
2024/04/09 17:25:06;;;;;;;10.00;3.63;;;;;;;24.44;35.82;99725.63;1859800;77;26098;-74
2024/04/09 17:27:39;;;;;;;7.35;3.70;;;;;;;24.33;35.75;99724.98;1861463;76;25477;-72
2024/04/09 17:30:09;;;;;;;6.80;3.55;;;;;;;24.19;36.41;99727.34;1866598;76;27378;-74
2024/04/09 17:32:43;;;;;;;10.68;4.08;;;;;;;24.07;36.62;99734.22;1866042;76;25445;-74
2024/04/09 17:35:10;;;;;;;9.70;4.53;;;;;;;23.96;37.03;99729.45;1865849;76;25071;-69
2024/04/09 17:37:39;;;;;;;25.77;16.60;;;;;;;23.84;37.47;99731.55;1865527;76;26080;-66
2024/04/09 17:40:09;;;;;;;11.43;6.67;;;;;;;23.76;37.86;99738.92;1865677;76;25427;-62
2024/04/09 17:42:37;;;;;;;10.70;4.22;;;;;;;23.67;37.74;99734.67;1864938;76;27615;-65
2024/04/09 17:45:07;;;;;;;11.65;5.17;;;;;;;23.60;38.19;99735.34;1864569;76;25516;-63
2024/04/09 17:47:37;;;;;;;13.05;6.90;;;;;;;23.51;38.58;99737.20;1849073;76;25449;-64
2024/04/09 17:50:08;;;;;;;8.40;6.03;;;;;;;23.41;38.82;99738.11;1831116;77;25568;-66
2024/04/09 17:52:35;;;;;;;6.78;3.98;;;;;;;23.33;38.96;99746.27;1815091;78;25541;-65
2024/04/09 17:55:06;;;;;;;15.30;4.58;;;;;;;23.21;39.59;99741.46;1831339;77;27413;-67
2024/04/09 17:57:33;;;;;;;16.12;4.00;;;;;;;23.10;40.03;99742.95;1831394;77;25310;-65
2024/04/09 18:00:04;;;;;;;5.62;3.42;;;;;;;23.02;39.91;99748.87;1831595;78;25303;-67
2024/04/09 18:02:31;;;;;;;4.97;3.67;;;;;;;22.93;40.54;99749.34;1795277;79;25543;-68
2024/04/09 18:05:05;;;;;;;8.48;4.25;;;;;;;22.84;40.51;99747.66;1778044;80;25480;-67
2024/04/09 18:07:30;;;;;;;8.55;3.55;;;;;;;22.77;40.89;99749.87;1777544;80;27379;-70
2024/04/09 18:09:57;;;;;;;8.03;3.67;;;;;;;22.70;41.62;99760.36;1778019;80;25466;-68
2024/04/09 18:12:26;;;;;;;6.42;3.12;;;;;;;22.66;41.49;99758.80;1786654;80;25485;-70
2024/04/09 18:14:55;;;;;;;6.62;3.80;;;;;;;22.62;41.84;99761.59;1786640;80;25502;-67
2024/04/09 18:17:25;;;;;;;9.08;3.47;;;;;;;22.60;41.91;99766.73;1786588;80;25282;-69
2024/04/09 18:19:52;;;;;;;8.93;3.60;;;;;;;22.56;42.16;99765.98;1786749;80;27313;-69
2024/04/09 18:22:21;;;;;;;7.55;3.25;;;;;;;22.50;41.95;99769.73;1760529;80;25506;-72
2024/04/09 18:24:50;;;;;;;14.07;6.30;;;;;;;22.45;42.16;99768.00;1786826;80;25304;-73
2024/04/09 18:27:19;;;;;;;6.58;4.45;;;;;;;22.41;42.29;99774.11;1787073;80;25562;-70
2024/04/09 18:29:47;;;;;;;9.08;3.75;;;;;;;22.35;42.60;99775.91;1763593;81;25297;-71
2024/04/09 18:32:14;;;;;;;6.50;4.28;;;;;;;22.31;42.84;99775.75;1775012;80;27916;-69
2024/04/09 18:34:42;;;;;;;7.72;4.90;;;;;;;22.28;42.93;99780.08;1775034;80;25964;-71
2024/04/09 18:37:10;;;;;;;10.85;4.40;;;;;;;22.23;43.04;99784.60;1774987;80;25482;-69
2024/04/09 18:39:37;;;;;;;7.60;4.20;;;;;;;22.19;43.00;99787.98;1783536;80;25516;-69
2024/04/09 18:42:06;;;;;;;6.80;4.25;;;;;;;22.15;43.28;99789.95;1783806;80;25465;-70
2024/04/09 18:44:33;;;;;;;8.83;4.63;;;;;;;22.08;43.21;99794.11;1784063;80;28009;-70
2024/04/09 18:47:01;;;;;;;11.60;4.80;;;;;;;22.00;43.60;99794.75;1783595;80;25505;-71
2024/04/09 18:49:28;;;;;;;8.78;5.15;;;;;;;21.93;43.56;99791.42;1783565;80;25487;-70
2024/04/09 18:51:56;;;;;;;11.35;6.00;;;;;;;21.88;43.95;99794.59;1783437;80;25536;-69
2024/04/09 18:54:28;;;;;;;8.78;5.47;;;;;;;21.82;44.01;99792.81;1783755;80;25329;-69
2024/04/09 18:56:55;;;;;;;15.00;5.55;;;;;;;21.76;44.52;99793.05;1784662;80;27452;-70
2024/04/09 18:59:22;;;;;;;12.93;6.72;;;;;;;21.68;44.62;99792.86;1784833;80;25331;-69
2024/04/09 19:01:51;;;;;;;13.98;6.75;;;;;;;21.58;44.85;99795.82;1784057;80;25492;-68
2024/04/09 19:04:19;;;;;;;15.65;8.38;;;;;;;21.51;44.90;99797.22;1783750;80;25478;-71
2024/04/09 19:06:46;;;;;;;12.43;8.03;;;;;;;21.45;45.18;99797.38;1783462;80;25338;-65
2024/04/09 19:09:14;;;;;;;15.32;10.00;;;;;;;21.38;45.40;99806.42;1783449;80;27284;-66
2024/04/09 19:11:43;;;;;;;12.55;8.48;;;;;;;21.30;45.34;99799.95;1754005;80;25592;-68
2024/04/09 19:14:11;;;;;;;19.63;10.40;;;;;;;21.20;45.89;99804.30;1783728;80;25526;-69
2024/04/09 19:16:38;;;;;;;17.37;8.43;;;;;;;21.12;45.77;99802.12;1783427;80;25511;-65
2024/04/09 19:19:05;;;;;;;17.60;11.60;;;;;;;21.06;46.03;99806.42;1783460;80;25476;-65
2024/04/09 19:21:32;;;;;;;19.25;12.15;;;;;;;20.97;46.34;99800.55;1783466;80;27741;-68
2024/04/09 19:24:00;;;;;;;19.73;10.60;;;;;;;20.89;46.78;99804.66;1783738;80;26182;-70
2024/04/09 19:26:28;;;;;;;18.95;11.75;;;;;;;20.83;46.83;99803.47;1783552;80;25523;-69
2024/04/09 19:28:57;;;;;;;29.23;20.10;;;;;;;20.76;47.04;99795.81;1779946;80;26682;-68
2024/04/09 19:31:25;;;;;;;31.82;22.22;;;;;;;20.80;47.68;99815.83;1777775;80;25519;-68
2024/04/09 19:33:54;;;;;;;27.22;17.60;;;;;;;20.63;47.68;99798.91;1777874;80;27347;-68
2024/04/09 19:36:21;;;;;;;24.65;12.68;;;;;;;20.57;47.69;99795.53;1777567;80;25556;-68
2024/04/09 19:38:48;;;;;;;13.88;9.10;;;;;;;20.47;47.58;99795.13;1777687;80;25540;-70
2024/04/09 19:41:15;;;;;;;11.63;7.60;;;;;;;20.41;48.35;99798.03;1777605;80;25524;-72
2024/04/09 19:43:44;;;;;;;15.50;7.78;;;;;;;20.32;48.37;99797.63;1777690;80;25484;-68
2024/04/09 19:46:11;;;;;;;13.95;6.58;;;;;;;20.28;48.50;99800.95;1777860;80;27444;-69
2024/04/09 19:48:39;;;;;;;11.50;6.97;;;;;;;20.21;48.55;99800.91;1777768;80;25455;-70
2024/04/09 19:51:06;;;;;;;12.80;6.85;;;;;;;20.11;48.61;99800.48;1777897;80;25302;-71
2024/04/09 19:53:34;;;;;;;9.10;6.03;;;;;;;20.05;49.13;99806.14;1777765;80;25470;-71
2024/04/09 19:56:02;;;;;;;10.70;6.60;;;;;;;19.99;49.47;99800.83;1777927;80;25555;-70
2024/04/09 19:58:29;;;;;;;11.35;6.97;;;;;;;19.91;49.78;99802.73;1777809;80;27417;-69
2024/04/09 20:00:57;;;;;;;12.75;7.10;;;;;;;19.86;49.72;99803.70;1777762;80;25536;-70
2024/04/09 20:03:24;;;;;;;12.30;6.08;;;;;;;19.80;49.69;99803.85;1777924;80;25508;-69
2024/04/09 20:05:51;;;;;;;8.33;5.87;;;;;;;19.74;49.98;99800.09;1777860;80;25479;-69
2024/04/09 20:08:18;;;;;;;13.75;6.65;;;;;;;19.72;49.98;99802.41;1747445;80;25411;-69
2024/04/09 20:11:05;;;;;;;19.48;12.73;;;;;;;19.67;50.23;99807.48;1777849;80;28496;-67
2024/04/09 20:13:34;;;;;;;34.67;28.62;;;;;;;19.62;50.18;99803.13;1722927;83;25660;-66
2024/04/09 20:16:05;;;;;;;11.80;6.55;;;;;;;19.56;50.59;99802.72;1775581;80;25478;-66
2024/04/09 20:18:32;;;;;;;11.88;6.75;;;;;;;19.54;50.76;99798.77;1775711;80;25481;-65
2024/04/09 20:21:02;;;;;;;9.13;6.05;;;;;;;19.51;50.90;99806.38;1775811;80;25378;-67
2024/04/09 20:23:31;;;;;;;9.10;6.75;;;;;;;19.48;50.99;99803.02;1776525;80;28251;-68
2024/04/09 20:26:01;;;;;;;9.98;6.50;;;;;;;19.44;50.89;99798.89;1775303;80;27243;-68
2024/04/09 20:28:30;;;;;;;34.67;25.32;;;;;;;19.41;50.80;99804.56;1775362;80;25803;-69
2024/04/09 20:31:13;;;;;;;11.05;8.60;;;;;;;19.34;51.16;99805.89;1775496;80;25622;-69
2024/04/09 20:33:38;;;;;;;9.85;7.15;;;;;;;19.31;51.06;99805.87;1774309;80;25587;-69
2024/04/09 20:36:07;;;;;;;10.85;6.45;;;;;;;19.29;51.15;99805.44;1775400;80;27500;-68
2024/04/09 20:38:35;;;;;;;11.30;5.83;;;;;;;19.23;51.17;99809.90;1812174;78;25504;-69
2024/04/09 20:41:03;;;;;;;12.53;6.53;;;;;;;19.21;51.06;99813.61;1825506;78;25338;-69
2024/04/09 20:43:31;;;;;;;9.53;5.95;;;;;;;19.18;51.54;99814.36;1789213;80;25507;-68
2024/04/09 20:45:58;;;;;;;9.13;6.65;;;;;;;19.14;51.21;99813.55;1778017;80;25475;-69
2024/04/09 20:48:26;;;;;;;11.97;6.40;;;;;;;19.09;51.70;99809.02;1778040;80;27434;-68
2024/04/09 20:50:54;;;;;;;11.88;6.80;;;;;;;19.05;51.82;99804.84;1777964;79;25350;-68
2024/04/09 20:53:23;;;;;;;10.08;6.83;;;;;;;18.99;51.59;99807.16;1778208;80;25471;-68
2024/04/09 20:56:05;;;;;;;10.93;7.25;;;;;;;18.93;52.14;99801.02;1778013;80;26189;-68
2024/04/09 20:58:33;;;;;;;11.65;6.67;;;;;;;18.85;52.40;99806.44;1778098;80;25468;-68
2024/04/09 21:01:03;;;;;;;11.00;6.42;;;;;;;18.79;52.27;99804.39;1778066;79;27359;-69
2024/04/09 21:03:30;;;;;;;8.80;7.20;;;;;;;18.75;52.41;99807.69;1778009;80;25223;-70
2024/04/09 21:05:59;;;;;;;10.28;7.00;;;;;;;18.69;52.65;99802.33;1778039;80;25517;-70
2024/04/09 21:08:27;;;;;;;13.53;6.90;;;;;;;18.63;52.40;99806.78;1778549;80;25479;-70
2024/04/09 21:10:55;;;;;;;36.63;23.20;;;;;;;18.55;52.71;99803.75;1779037;80;25472;-70
2024/04/09 21:13:24;;;;;;;18.37;11.83;;;;;;;18.51;52.92;99805.67;1779062;80;27375;-68
2024/04/09 21:15:51;;;;;;;13.50;9.63;;;;;;;18.47;52.96;99813.86;1778764;79;25476;-69
2024/04/09 21:18:19;;;;;;;10.10;7.37;;;;;;;18.41;53.04;99811.23;1778091;80;25512;-73
2024/04/09 21:20:46;;;;;;;11.93;6.47;;;;;;;18.39;53.32;99812.75;1778095;80;25466;-73
2024/04/09 21:23:14;;;;;;;11.03;7.15;;;;;;;18.36;53.16;99808.83;1778199;80;25319;-73
2024/04/09 21:25:42;;;;;;;10.45;7.37;;;;;;;18.36;53.18;99809.41;1778250;80;27355;-72
2024/04/09 21:28:11;;;;;;;9.68;7.30;;;;;;;18.32;53.19;99802.53;1777971;80;25573;-73
2024/04/09 21:30:39;;;;;;;9.23;7.00;;;;;;;18.31;53.24;99800.16;1778074;80;25459;-72
2024/04/09 21:33:09;;;;;;;10.53;7.80;;;;;;;18.27;53.31;99807.75;1778258;80;26097;-70
2024/04/09 21:35:39;;;;;;;15.48;7.87;;;;;;;18.23;53.57;99806.90;1778094;79;25401;-72
2024/04/09 21:38:07;;;;;;;12.10;6.83;;;;;;;18.21;53.34;99806.48;1776848;79;27441;-71
2024/04/09 21:40:34;;;;;;;9.48;6.90;;;;;;;18.17;53.39;99801.56;1775926;80;25591;-71
2024/04/09 21:43:01;;;;;;;9.73;6.30;;;;;;;18.15;53.65;99803.08;1777370;80;25558;-70
2024/04/09 21:45:28;;;;;;;11.75;7.28;;;;;;;18.13;53.40;99813.62;1777357;79;25583;-72
2024/04/09 21:47:56;;;;;;;18.80;7.55;;;;;;;18.09;53.52;99817.68;1777410;80;25575;-72
2024/04/09 21:50:23;;;;;;;11.65;7.12;;;;;;;18.05;53.89;99810.80;1777410;80;27424;-71
2024/04/09 21:52:50;;;;;;;10.32;6.60;;;;;;;18.00;53.52;99813.08;1776894;80;25612;-71
2024/04/09 21:55:17;;;;;;;9.28;7.10;;;;;;;17.97;53.58;99815.18;1777756;80;25509;-71
2024/04/09 21:57:44;;;;;;;9.38;7.17;;;;;;;17.89;53.71;99815.09;1778063;80;25524;-71
2024/04/09 22:00:19;;;;;;;11.22;7.92;;;;;;;17.86;53.85;99818.56;1778159;80;25467;-71
2024/04/09 22:02:41;;;;;;;10.03;7.33;;;;;;;17.82;53.73;99813.57;1776408;80;27475;-72
2024/04/09 22:05:08;;;;;;;14.85;6.70;;;;;;;17.77;53.77;99813.11;1777951;79;25497;-72
2024/04/09 22:07:35;;;;;;;15.58;7.70;;;;;;;17.71;53.84;99818.90;1778040;79;25486;-72